KCBF/CBF METAR and TAF weather

Enter ICAO airport designator
Station Type Date Time Source
KCBF METAR 2020/07/02 19:35 UTC NOAA

KCBF 021935Z AUTO 08008KT 10SM SCT027 29/23 A3001 RMK AO2


Station Type Date Time Source
KCBF Decoded METAR 2020/07/02 19:35 UTC NOAA

Council Bluffs, IA, United States (KCBF) 41-16N 095-46W
Jul 02, 2020 - 03:35 PM EDT / 2020.07.02 1935 UTC
Wind: from the E (080 degrees) at 9 MPH (8 KT):0
Visibility: 10 mile(s):0
Sky conditions: partly cloudy
Temperature: 84 F (29 C)
Dew Point: 73 F (23 C)
Relative Humidity: 70%
Pressure (altimeter): 30.01 in. Hg (1016 hPa)
ob: KCBF 021935Z AUTO 08008KT 10SM SCT027 29/23 A3001 RMK AO2
cycle: 19

Station Type Date Time Source
KCBF TAF UTC NOAA

Error!

Example: see airport list